createdAt,value
2023-07-29T00:01:44.913Z,99946.84
2023-07-29T00:04:12.961Z,99951.56
2023-07-29T00:06:39.851Z,99950.81
2023-07-29T00:09:06.708Z,99956.50
2023-07-29T00:11:35.030Z,99954.91
2023-07-29T00:14:04.885Z,99949.66
2023-07-29T00:16:31.716Z,99954.38
2023-07-29T00:18:58.472Z,99944.66
2023-07-29T00:21:25.321Z,99934.28
2023-07-29T00:23:52.135Z,99941.34
2023-07-29T00:26:19.047Z,99945.00
2023-07-29T00:28:45.862Z,99942.41
2023-07-29T00:31:12.789Z,99940.72
2023-07-29T00:33:39.677Z,99942.53
2023-07-29T00:36:06.366Z,99937.41
2023-07-29T00:38:33.499Z,99941.91
2023-07-29T00:41:03.384Z,99938.34
2023-07-29T00:43:30.477Z,99939.44
2023-07-29T00:45:58.909Z,99938.34
2023-07-29T00:48:27.375Z,99930.44
2023-07-29T00:50:55.804Z,99931.28
2023-07-29T00:53:23.183Z,99927.00
2023-07-29T00:55:50.127Z,99921.66
2023-07-29T00:58:16.943Z,99927.00
2023-07-29T01:00:43.647Z,99919.97
2023-07-29T01:03:11.096Z,99919.25
2023-07-29T01:06:15.407Z,99909.69
2023-07-29T01:09:07.938Z,99913.53
2023-07-29T01:12:04.965Z,99916.19
2023-07-29T01:14:42.042Z,99911.91
2023-07-29T01:17:14.944Z,99905.84
2023-07-29T01:20:07.443Z,99901.34
2023-07-29T01:22:36.455Z,99892.78
2023-07-29T01:25:03.814Z,99891.09
2023-07-29T01:27:31.807Z,99891.22
2023-07-29T01:29:59.498Z,99898.38
2023-07-29T01:32:56.286Z,99891.44
2023-07-29T01:35:49.640Z,99895.28
2023-07-29T01:38:21.944Z,99896.34
2023-07-29T01:40:51.179Z,99889.31
2023-07-29T01:43:20.004Z,99890.25
2023-07-29T01:45:47.546Z,99892.91
2023-07-29T01:48:14.333Z,99883.00
2023-07-29T01:50:41.023Z,99887.38
2023-07-29T01:53:08.031Z,99877.84
2023-07-29T01:55:34.868Z,99877.84
2023-07-29T01:58:01.584Z,99889.31
2023-07-29T02:00:28.253Z,99882.34
2023-07-29T02:02:54.954Z,99884.19
2023-07-29T02:05:21.694Z,99876.16
2023-07-29T02:07:48.561Z,99878.72
2023-07-29T02:10:15.555Z,99884.91
2023-07-29T02:12:42.218Z,99885.88
2023-07-29T02:15:09.672Z,99880.66
2023-07-29T02:17:37.723Z,99882.44
2023-07-29T02:20:05.401Z,99875.63
2023-07-29T02:22:32.114Z,99889.63
2023-07-29T02:24:58.873Z,99888.97
2023-07-29T02:27:28.367Z,99888.13
2023-07-29T02:29:55.410Z,99893.59
2023-07-29T02:32:22.924Z,99882.03
2023-07-29T02:34:50.231Z,99886.63
2023-07-29T02:37:17.015Z,99886.63
2023-07-29T02:39:43.835Z,99885.03
2023-07-29T02:42:10.557Z,99897.53
2023-07-29T02:44:37.264Z,99894.00
2023-07-29T02:47:04.895Z,99891.56
2023-07-29T02:49:31.668Z,99894.09
2023-07-29T02:51:58.653Z,99883.63
2023-07-29T02:54:25.439Z,99887.06
2023-07-29T02:56:52.279Z,99891.56
2023-07-29T02:59:18.947Z,99883.00
2023-07-29T03:01:45.718Z,99889.09
2023-07-29T03:04:14.213Z,99887.47
2023-07-29T03:06:40.943Z,99886.63
2023-07-29T03:09:07.723Z,99888.56
2023-07-29T03:11:34.626Z,99890.47
2023-07-29T03:14:02.152Z,99894.97
2023-07-29T03:16:28.936Z,99892.41
2023-07-29T03:18:55.642Z,99887.06
2023-07-29T03:21:22.450Z,99883.44
2023-07-29T03:23:49.263Z,99887.91
2023-07-29T03:26:15.955Z,99888.78
2023-07-29T03:28:44.155Z,99897.53
2023-07-29T03:31:11.926Z,99894.78
2023-07-29T03:33:38.817Z,99881.63
2023-07-29T03:36:05.792Z,99887.47
2023-07-29T03:38:34.254Z,99892.94
2023-07-29T03:41:00.943Z,99899.13
2023-07-29T03:43:27.579Z,99898.28
2023-07-29T03:45:54.365Z,99906.09
2023-07-29T03:48:21.063Z,99899.66
2023-07-29T03:50:47.794Z,99902.25
2023-07-29T03:53:14.512Z,99901.81
2023-07-29T03:55:41.466Z,99898.38
2023-07-29T03:58:08.252Z,99906.94
2023-07-29T04:00:34.957Z,99905.00
2023-07-29T04:03:02.085Z,99904.78
2023-07-29T04:05:28.845Z,99898.81
2023-07-29T04:07:55.667Z,99902.88
2023-07-29T04:10:22.651Z,99893.03
2023-07-29T04:12:49.524Z,99890.03
2023-07-29T04:15:16.330Z,99895.94
2023-07-29T04:17:43.065Z,99902.13
2023-07-29T04:20:10.510Z,99894.75
2023-07-29T04:22:39.570Z,99904.25
2023-07-29T04:25:06.987Z,99891.09
2023-07-29T04:27:33.723Z,99904.16
2023-07-29T04:30:01.262Z,99889.69
2023-07-29T04:32:28.152Z,99894.09
2023-07-29T04:34:54.989Z,99902.00
2023-07-29T04:37:21.690Z,99905.63
2023-07-29T04:39:48.379Z,99908.00
2023-07-29T04:42:15.170Z,99903.50
2023-07-29T04:44:43.286Z,99901.59
2023-07-29T04:47:10.138Z,99903.91
2023-07-29T04:49:37.009Z,99901.16
2023-07-29T04:52:04.013Z,99897.50
2023-07-29T04:54:30.773Z,99893.63
2023-07-29T04:56:57.486Z,99890.53
2023-07-29T04:59:24.778Z,99891.25
2023-07-29T05:01:54.857Z,99895.31
2023-07-29T05:04:21.995Z,99893.41
2023-07-29T05:06:48.735Z,99896.34
2023-07-29T05:09:17.699Z,99893.94
2023-07-29T05:11:48.453Z,99891.69
2023-07-29T05:14:15.601Z,99898.63
2023-07-29T05:16:42.947Z,99889.63
2023-07-29T05:19:09.836Z,99889.63
2023-07-29T05:21:36.819Z,99893.06
2023-07-29T05:24:03.659Z,99889.41
2023-07-29T05:26:30.413Z,99889.41
2023-07-29T05:28:57.342Z,99888.56
2023-07-29T05:31:24.248Z,99886.50
2023-07-29T05:33:50.914Z,99887.34
2023-07-29T05:36:17.717Z,99887.25
2023-07-29T05:38:44.553Z,99881.06
2023-07-29T05:41:11.300Z,99882.75
2023-07-29T05:43:38.981Z,99890.94
2023-07-29T05:46:05.677Z,99892.66
2023-07-29T05:48:32.449Z,99885.25
2023-07-29T05:50:59.193Z,99897.31
2023-07-29T05:53:25.871Z,99895.03
2023-07-29T05:55:52.593Z,99899.06
2023-07-29T05:58:19.562Z,99893.47
2023-07-29T06:00:46.457Z,99894.75
2023-07-29T06:03:13.317Z,99891.75
2023-07-29T06:05:40.716Z,99885.91
2023-07-29T06:08:09.684Z,99891.16
2023-07-29T06:10:36.604Z,99897.25
2023-07-29T06:13:03.509Z,99889.22
2023-07-29T06:15:31.169Z,99897.03
2023-07-29T06:17:58.104Z,99895.06
2023-07-29T06:20:25.113Z,99904.47
2023-07-29T06:22:51.820Z,99901.66
2023-07-29T06:25:18.714Z,99909.22
2023-07-29T06:27:45.393Z,99909.97
2023-07-29T06:30:12.242Z,99901.78
2023-07-29T06:32:38.942Z,99911.44
2023-07-29T06:35:06.031Z,99914.81
2023-07-29T06:37:34.514Z,99910.97
2023-07-29T06:40:01.273Z,99905.59
2023-07-29T06:42:28.059Z,99905.00
2023-07-29T06:44:54.785Z,99910.97
2023-07-29T06:47:21.503Z,99904.84
2023-07-29T06:49:48.591Z,99906.31
2023-07-29T06:52:15.246Z,99914.63
2023-07-29T06:54:41.953Z,99914.41
2023-07-29T06:57:09.365Z,99907.81
2023-07-29T06:59:36.111Z,99908.28
2023-07-29T07:02:03.250Z,99906.22
2023-07-29T07:04:30.135Z,99912.06
2023-07-29T07:06:56.949Z,99905.63
2023-07-29T07:09:23.660Z,99909.88
2023-07-29T07:11:50.360Z,99908.91
2023-07-29T07:14:17.230Z,99905.38
2023-07-29T07:16:43.982Z,99912.91
2023-07-29T07:19:10.647Z,99910.88
2023-07-29T07:21:37.332Z,99916.13
2023-07-29T07:24:04.119Z,99906.13
2023-07-29T07:26:30.820Z,99911.38
2023-07-29T07:28:57.602Z,99917.34
2023-07-29T07:31:24.471Z,99916.34
2023-07-29T07:33:51.329Z,99913.41
2023-07-29T07:36:18.030Z,99915.84
2023-07-29T07:38:44.715Z,99912.19
2023-07-29T07:41:11.596Z,99913.69
2023-07-29T07:43:38.340Z,99910.84
2023-07-29T07:46:05.260Z,99908.03
2023-07-29T07:48:34.149Z,99906.09
2023-07-29T07:51:00.969Z,99899.63
2023-07-29T07:53:27.696Z,99903.75
2023-07-29T07:55:54.404Z,99898.41
2023-07-29T07:58:21.137Z,99904.13
2023-07-29T08:00:47.819Z,99895.06
2023-07-29T08:03:14.794Z,99904.56
2023-07-29T08:05:41.545Z,99894.81
2023-07-29T08:08:08.379Z,99906.91
2023-07-29T08:10:35.395Z,99900.44
2023-07-29T08:13:02.098Z,99903.22
2023-07-29T08:15:28.954Z,99904.41
2023-07-29T08:17:55.705Z,99906.00
2023-07-29T08:20:22.515Z,99900.50
2023-07-29T08:22:49.378Z,99903.91
2023-07-29T08:25:16.245Z,99908.19
2023-07-29T08:27:42.896Z,99898.03
2023-07-29T08:30:10.158Z,99903.16
2023-07-29T08:32:37.036Z,99903.16
2023-07-29T08:35:04.078Z,99908.13
2023-07-29T08:37:32.620Z,99908.00
2023-07-29T08:39:59.374Z,99900.69
2023-07-29T08:42:30.745Z,99899.81
2023-07-29T08:44:57.836Z,99904.69
2023-07-29T08:47:24.543Z,99896.03
2023-07-29T08:49:53.292Z,99893.09
2023-07-29T08:52:21.061Z,99899.78
2023-07-29T08:54:48.275Z,99900.28
2023-07-29T08:57:15.821Z,99898.31
2023-07-29T08:59:42.919Z,99904.16
2023-07-29T09:02:09.811Z,99904.84
2023-07-29T09:04:36.536Z,99909.00
2023-07-29T09:07:03.988Z,99908.34
2023-07-29T09:09:30.725Z,99901.72
2023-07-29T09:11:57.752Z,99895.34
2023-07-29T09:14:25.393Z,99892.56
2023-07-29T09:16:52.822Z,99885.34
2023-07-29T09:19:19.970Z,99895.94
2023-07-29T09:21:48.052Z,99897.53
2023-07-29T09:24:17.467Z,99899.09
2023-07-29T09:26:50.678Z,99894.56
2023-07-29T09:29:22.531Z,99899.81
2023-07-29T09:31:49.473Z,99881.88
2023-07-29T09:34:18.260Z,99902.72
2023-07-29T09:36:44.990Z,99900.59
2023-07-29T09:39:14.277Z,99893.53
2023-07-29T09:41:41.107Z,99895.22
2023-07-29T09:44:08.763Z,99896.66
2023-07-29T09:46:37.589Z,99883.94
2023-07-29T09:49:08.951Z,99891.59
2023-07-29T09:51:40.508Z,99891.59
2023-07-29T09:54:07.891Z,99891.34
2023-07-29T09:56:35.124Z,99901.25
2023-07-29T09:59:04.642Z,99899.53
2023-07-29T10:01:33.121Z,99903.53
2023-07-29T10:04:02.871Z,99891.38
2023-07-29T10:06:30.943Z,99894.41
2023-07-29T10:08:58.784Z,99890.88
2023-07-29T10:11:26.376Z,99900.00
2023-07-29T10:14:07.422Z,99888.84
2023-07-29T10:16:37.989Z,99887.88
2023-07-29T10:19:06.169Z,99883.59
2023-07-29T10:21:34.097Z,99887.13
2023-07-29T10:24:04.400Z,99889.25
2023-07-29T10:26:34.927Z,99890.53
2023-07-29T10:29:08.045Z,99886.25
2023-07-29T10:31:36.171Z,99893.72
2023-07-29T10:34:03.487Z,99895.66
2023-07-29T10:36:30.511Z,99891.16
2023-07-29T10:38:57.286Z,99892.03
2023-07-29T10:41:24.214Z,99896.00
2023-07-29T10:43:51.024Z,99898.31
2023-07-29T10:46:20.070Z,99894.47
2023-07-29T10:48:55.765Z,99898.06
2023-07-29T10:51:26.565Z,99898.63
2023-07-29T10:54:13.504Z,99891.41
2023-07-29T10:56:52.359Z,99904.59
2023-07-29T10:59:18.960Z,99901.63
2023-07-29T11:02:02.025Z,99898.63
2023-07-29T11:04:32.279Z,99898.25
2023-07-29T11:07:05.114Z,99893.88
2023-07-29T11:09:57.790Z,99901.66
2023-07-29T11:12:46.622Z,99888.78
2023-07-29T11:15:17.791Z,99896.84
2023-07-29T11:17:44.556Z,99897.19
2023-07-29T11:20:13.198Z,99904.72
2023-07-29T11:22:40.480Z,99898.22
2023-07-29T11:25:09.699Z,99886.88
2023-07-29T11:27:38.235Z,99895.66
2023-07-29T11:30:07.714Z,99904.19
2023-07-29T11:32:35.038Z,99904.47
2023-07-29T11:35:10.868Z,99900.78
2023-07-29T11:37:39.060Z,99898.50
2023-07-29T11:40:07.504Z,99908.00
2023-07-29T11:42:35.406Z,99906.59
2023-07-29T11:45:07.684Z,99902.78
2023-07-29T11:47:38.431Z,99912.16
2023-07-29T11:50:10.977Z,99903.06
2023-07-29T11:52:40.482Z,99915.81
2023-07-29T11:55:07.586Z,99906.88
2023-07-29T11:57:38.738Z,99907.44
2023-07-29T12:00:11.471Z,99914.13
2023-07-29T12:02:40.283Z,99910.88
2023-07-29T12:05:08.076Z,99898.66
2023-07-29T12:07:34.955Z,99903.34
2023-07-29T12:10:04.384Z,99906.75
2023-07-29T12:12:31.192Z,99900.22
2023-07-29T12:14:58.132Z,99897.38
2023-07-29T12:17:24.994Z,99903.91
2023-07-29T12:19:56.307Z,99906.59
2023-07-29T12:22:23.170Z,99905.88
2023-07-29T12:24:53.328Z,99901.94
2023-07-29T12:27:22.951Z,99897.50
2023-07-29T12:29:53.130Z,99904.47
2023-07-29T12:32:20.113Z,99910.13
2023-07-29T12:34:46.909Z,99901.75
2023-07-29T12:37:13.631Z,99915.22
2023-07-29T12:39:43.773Z,99907.59
2023-07-29T12:42:10.593Z,99905.31
2023-07-29T12:44:39.118Z,99902.78
2023-07-29T12:47:07.709Z,99907.28
2023-07-29T12:49:34.445Z,99911.44
2023-07-29T12:52:01.502Z,99907.84
2023-07-29T12:54:28.603Z,99905.88
2023-07-29T12:56:55.442Z,99906.72
2023-07-29T12:59:22.123Z,99913.97
2023-07-29T13:01:49.367Z,99915.81
2023-07-29T13:04:16.175Z,99914.38
2023-07-29T13:06:42.848Z,99906.59
2023-07-29T13:09:09.608Z,99920.91
2023-07-29T13:11:36.520Z,99906.72
2023-07-29T13:14:03.373Z,99917.94
2023-07-29T13:16:30.634Z,99917.50
2023-07-29T13:18:57.750Z,99924.31
2023-07-29T13:21:25.049Z,99914.41
2023-07-29T13:23:53.095Z,99901.22
2023-07-29T13:26:19.799Z,99912.41
2023-07-29T13:28:46.518Z,99917.50
2023-07-29T13:31:14.158Z,99906.16
2023-07-29T13:33:41.180Z,99905.31
2023-07-29T13:36:09.603Z,99899.91
2023-07-29T13:38:36.669Z,99898.34
2023-07-29T13:41:03.795Z,99907.66
2023-07-29T13:43:30.603Z,99902.16
2023-07-29T13:45:57.410Z,99904.13
2023-07-29T13:48:24.207Z,99912.38
2023-07-29T13:50:52.241Z,99908.78
2023-07-29T13:53:19.126Z,99904.09
2023-07-29T13:55:45.836Z,99905.09
2023-07-29T13:58:12.628Z,99900.13
2023-07-29T14:00:39.353Z,99920.16
2023-07-29T14:03:06.058Z,99920.28
2023-07-29T14:05:32.866Z,99926.53
2023-07-29T14:07:59.555Z,99911.19
2023-07-29T14:10:26.655Z,99915.63
2023-07-29T14:12:53.365Z,99911.19
2023-07-29T14:15:20.253Z,99913.22
2023-07-29T14:17:46.916Z,99913.22
2023-07-29T14:20:14.998Z,99922.16
2023-07-29T14:22:41.709Z,99915.47
2023-07-29T14:25:09.204Z,99916.56
2023-07-29T14:27:35.980Z,99917.16
2023-07-29T14:30:03.353Z,99921.44
2023-07-29T14:32:30.074Z,99917.72
2023-07-29T14:34:56.787Z,99924.00
2023-07-29T14:37:23.435Z,99918.00
2023-07-29T14:39:50.102Z,99925.41
2023-07-29T14:42:16.778Z,99931.06
2023-07-29T14:44:43.666Z,99916.88
2023-07-29T14:47:10.354Z,99924.56
2023-07-29T14:49:37.004Z,99927.25
2023-07-29T14:52:03.856Z,99923.56
2023-07-29T14:54:30.561Z,99924.56
2023-07-29T14:56:57.213Z,99916.75
2023-07-29T14:59:23.944Z,99923.84
2023-07-29T15:01:50.680Z,99929.22
2023-07-29T15:04:17.617Z,99921.84
2023-07-29T15:06:44.369Z,99927.25
2023-07-29T15:09:11.152Z,99923.84
2023-07-29T15:11:37.898Z,99922.88
2023-07-29T15:14:07.639Z,99932.94
2023-07-29T15:16:39.597Z,99917.88
2023-07-29T15:19:06.510Z,99930.78
2023-07-29T15:21:34.772Z,99925.66
2023-07-29T15:24:01.777Z,99927.34
2023-07-29T15:26:29.382Z,99927.34
2023-07-29T15:28:56.081Z,99925.94
2023-07-29T15:31:22.928Z,99924.81
2023-07-29T15:33:49.713Z,99931.63
2023-07-29T15:36:16.475Z,99922.50
2023-07-29T15:38:43.190Z,99923.94
2023-07-29T15:41:10.000Z,99926.34
2023-07-29T15:43:36.869Z,99924.66
2023-07-29T15:46:03.596Z,99931.19
2023-07-29T15:48:30.354Z,99924.56
2023-07-29T15:50:57.011Z,99920.41
2023-07-29T15:53:24.140Z,99924.41
2023-07-29T15:55:51.457Z,99910.94
2023-07-29T15:58:18.109Z,99915.59
2023-07-29T16:00:44.785Z,99929.38
2023-07-29T16:03:11.569Z,99923.97
2023-07-29T16:05:38.292Z,99925.41
2023-07-29T16:08:05.120Z,99920.56
2023-07-29T16:10:31.855Z,99929.97
2023-07-29T16:12:58.709Z,99921.72
2023-07-29T16:15:25.456Z,99927.28
2023-07-29T16:17:54.197Z,99929.97
2023-07-29T16:20:21.015Z,99928.22
2023-07-29T16:22:47.720Z,99927.38
2023-07-29T16:25:14.501Z,99930.06
2023-07-29T16:27:41.248Z,99918.44
2023-07-29T16:30:08.422Z,99929.50
2023-07-29T16:32:35.245Z,99926.25
2023-07-29T16:35:02.523Z,99925.25
2023-07-29T16:37:29.218Z,99933.63
2023-07-29T16:39:56.029Z,99935.03
2023-07-29T16:42:22.782Z,99934.72
2023-07-29T16:44:49.527Z,99937.84
2023-07-29T16:47:16.417Z,99937.56
2023-07-29T16:49:43.185Z,99937.56
2023-07-29T16:52:09.831Z,99942.38
2023-07-29T16:54:36.638Z,99937.28
2023-07-29T16:57:03.492Z,99935.41
2023-07-29T16:59:30.175Z,99937.28
2023-07-29T17:01:56.997Z,99941.50
2023-07-29T17:04:23.690Z,99935.25
2023-07-29T17:06:51.024Z,99937.97
2023-07-29T17:09:17.718Z,99934.88
2023-07-29T17:11:44.455Z,99934.16
2023-07-29T17:14:11.221Z,99935.16
2023-07-29T17:16:38.384Z,99937.00
2023-07-29T17:19:05.342Z,99939.53
2023-07-29T17:21:32.293Z,99937.84
2023-07-29T17:23:59.131Z,99945.78
2023-07-29T17:26:25.861Z,99948.06
2023-07-29T17:28:52.609Z,99945.22
2023-07-29T17:31:19.346Z,99947.78
2023-07-29T17:33:46.046Z,99946.91
2023-07-29T17:36:12.702Z,99952.47
2023-07-29T17:38:42.058Z,99941.66
2023-07-29T17:41:08.787Z,99945.22
2023-07-29T17:43:35.525Z,99948.06
2023-07-29T17:46:02.220Z,99949.91
2023-07-29T17:48:29.787Z,99942.66
2023-07-29T17:50:56.523Z,99948.19
2023-07-29T17:53:23.241Z,99942.97
2023-07-29T17:55:49.927Z,99951.06
2023-07-29T17:58:16.749Z,99945.78
2023-07-29T18:00:43.526Z,99944.09
2023-07-29T18:03:10.376Z,99945.94
2023-07-29T18:05:38.292Z,99947.81
2023-07-29T18:08:05.197Z,99944.38
2023-07-29T18:10:32.237Z,99949.22
2023-07-29T18:13:02.482Z,99945.22
2023-07-29T18:15:31.340Z,99943.69
2023-07-29T18:17:58.268Z,99960.88
2023-07-29T18:20:25.017Z,99952.09
2023-07-29T18:22:51.732Z,99955.91
2023-07-29T18:25:18.486Z,99947.28
2023-07-29T18:27:45.242Z,99953.50
2023-07-29T18:30:14.958Z,99949.25
2023-07-29T18:32:42.195Z,99953.06
2023-07-29T18:35:10.465Z,99955.78
2023-07-29T18:37:37.331Z,99955.19
2023-07-29T18:40:04.350Z,99957.78
2023-07-29T18:42:31.044Z,99953.50
2023-07-29T18:44:57.765Z,99962.03
2023-07-29T18:47:24.529Z,99965.72
2023-07-29T18:49:51.219Z,99963.16
2023-07-29T18:52:17.896Z,99969.69
2023-07-29T18:54:45.419Z,99952.38
2023-07-29T18:57:12.056Z,99966.88
2023-07-29T18:59:38.754Z,99958.91
2023-07-29T19:02:06.680Z,99958.06
2023-07-29T19:04:33.555Z,99958.50
2023-07-29T19:07:00.224Z,99955.09
2023-07-29T19:09:27.048Z,99964.06
2023-07-29T19:11:54.249Z,99955.38
2023-07-29T19:14:22.249Z,99959.22
2023-07-29T19:16:49.197Z,99958.50
2023-07-29T19:19:15.990Z,99958.09
2023-07-29T19:21:42.698Z,99960.91
2023-07-29T19:24:09.462Z,99962.03
2023-07-29T19:26:36.517Z,99962.19
2023-07-29T19:29:03.497Z,99961.47
2023-07-29T19:31:30.175Z,99960.78
2023-07-29T19:33:56.865Z,99968.31
2023-07-29T19:36:23.550Z,99971.97
2023-07-29T19:38:50.233Z,99968.59
2023-07-29T19:41:17.509Z,99967.88
2023-07-29T19:43:46.409Z,99969.03
2023-07-29T19:46:37.734Z,99969.28
2023-07-29T19:49:00.154Z,99966.03
2023-07-29T19:51:27.787Z,99969.00
2023-07-29T19:53:55.494Z,99977.09
2023-07-29T19:56:22.323Z,99977.38
2023-07-29T19:58:50.156Z,99979.34
2023-07-29T20:01:17.539Z,99981.34
2023-07-29T20:03:44.409Z,99978.91
2023-07-29T20:06:11.751Z,99987.00
2023-07-29T20:08:38.501Z,99983.56
2023-07-29T20:11:05.334Z,99977.59
2023-07-29T20:13:33.228Z,99982.97
2023-07-29T20:15:59.986Z,99987.50
2023-07-29T20:18:26.711Z,99986.09
2023-07-29T20:20:53.504Z,99985.38
2023-07-29T20:23:20.171Z,99991.75
2023-07-29T20:25:49.655Z,99982.94
2023-07-29T20:28:16.671Z,99992.31
2023-07-29T20:30:44.473Z,99996.00
2023-07-29T20:33:11.212Z,99990.88
2023-07-29T20:35:37.908Z,99991.88
2023-07-29T20:38:04.583Z,100001.91
2023-07-29T20:40:31.286Z,99993.13
2023-07-29T20:42:57.964Z,100001.47
2023-07-29T20:45:24.700Z,100000.78
2023-07-29T20:47:51.433Z,99999.34
2023-07-29T20:50:18.229Z,99995.06
2023-07-29T20:52:45.004Z,100004.00
2023-07-29T20:55:11.744Z,100010.38
2023-07-29T20:57:38.529Z,99998.03
2023-07-29T21:00:06.297Z,100000.72
2023-07-29T21:02:33.132Z,100007.09
2023-07-29T21:05:00.255Z,100009.22
2023-07-29T21:07:27.298Z,100010.44
2023-07-29T21:09:54.069Z,99998.41
2023-07-29T21:12:20.750Z,100008.59
2023-07-29T21:14:47.587Z,100004.59
2023-07-29T21:17:14.299Z,100003.00
2023-07-29T21:19:42.192Z,99998.88
2023-07-29T21:22:08.908Z,100011.75
2023-07-29T21:24:36.824Z,100011.91
2023-07-29T21:27:03.831Z,100002.50
2023-07-29T21:29:30.488Z,100005.63
2023-07-29T21:31:57.299Z,100010.38
2023-07-29T21:34:23.950Z,100014.19
2023-07-29T21:36:50.778Z,100011.75
2023-07-29T21:39:17.452Z,100009.22
2023-07-29T21:41:44.112Z,100017.28
2023-07-29T21:44:10.830Z,100017.66
2023-07-29T21:46:37.507Z,100018.75
2023-07-29T21:49:04.331Z,100018.91
2023-07-29T21:51:31.042Z,100026.22
2023-07-29T21:53:57.724Z,100025.66
2023-07-29T21:56:24.541Z,100022.38
2023-07-29T21:58:51.455Z,100011.88
2023-07-29T22:01:18.173Z,100018.38
2023-07-29T22:03:44.999Z,100020.09
2023-07-29T22:06:11.704Z,100022.91
2023-07-29T22:08:38.496Z,100030.97
2023-07-29T22:11:10.540Z,100022.19
2023-07-29T22:13:37.206Z,100021.69
2023-07-29T22:16:04.687Z,100021.97
2023-07-29T22:18:31.812Z,100030.16
2023-07-29T22:21:01.247Z,100020.66
2023-07-29T22:23:28.453Z,100029.81
2023-07-29T22:26:02.013Z,100029.22
2023-07-29T22:28:30.010Z,100034.75
2023-07-29T22:30:59.287Z,100035.84
2023-07-29T22:33:26.137Z,100037.69
2023-07-29T22:35:52.987Z,100046.00
2023-07-29T22:38:19.660Z,100037.19
2023-07-29T22:40:55.754Z,100035.38
2023-07-29T22:43:23.661Z,100043.56
2023-07-29T22:45:58.660Z,100039.19
2023-07-29T22:48:27.733Z,100041.28
2023-07-29T22:50:57.683Z,100040.69
2023-07-29T22:53:24.933Z,100038.94
2023-07-29T22:55:51.905Z,100040.78
2023-07-29T22:58:20.718Z,100032.88
2023-07-29T23:00:55.282Z,100032.13
2023-07-29T23:03:23.087Z,100033.38
2023-07-29T23:05:50.363Z,100036.06
2023-07-29T23:08:17.472Z,100027.50
2023-07-29T23:10:44.270Z,100038.25
2023-07-29T23:13:11.087Z,100032.03
2023-07-29T23:15:39.133Z,100034.81
2023-07-29T23:18:06.840Z,100036.66
2023-07-29T23:20:34.318Z,100036.78
2023-07-29T23:23:05.207Z,100040.69
2023-07-29T23:25:32.743Z,100050.44
2023-07-29T23:27:59.544Z,100048.16
2023-07-29T23:30:26.364Z,100050.09
2023-07-29T23:32:53.214Z,100047.41
2023-07-29T23:35:20.154Z,100048.78
2023-07-29T23:37:49.783Z,100047.94
2023-07-29T23:40:17.971Z,100042.81
2023-07-29T23:42:44.731Z,100049.03
2023-07-29T23:45:11.727Z,100045.59
2023-07-29T23:47:38.549Z,100043.16
2023-07-29T23:50:06.062Z,100034.41
2023-07-29T23:52:33.956Z,100045.25
2023-07-29T23:55:02.115Z,100041.00
2023-07-29T23:57:28.847Z,100041.25
2023-07-29T23:59:55.724Z,100042.19
